createdAt,value
2022-10-23T00:01:31.354Z,14.13
2022-10-23T00:04:03.633Z,13.84
2022-10-23T00:06:32.049Z,13.75
2022-10-23T00:08:58.924Z,13.68
2022-10-23T00:11:27.992Z,13.74
2022-10-23T00:13:56.612Z,13.81
2022-10-23T00:16:23.210Z,14.00
2022-10-23T00:18:49.827Z,14.04
2022-10-23T00:21:17.639Z,13.97
2022-10-23T00:23:45.215Z,13.96
2022-10-23T00:26:23.313Z,13.99
2022-10-23T00:28:52.133Z,13.93
2022-10-23T00:31:20.215Z,14.11
2022-10-23T00:33:47.143Z,14.12
2022-10-23T00:36:15.733Z,14.08
2022-10-23T00:38:43.992Z,14.02
2022-10-23T00:41:18.984Z,13.96
2022-10-23T00:44:07.676Z,13.86
2022-10-23T00:46:35.303Z,13.92
2022-10-23T00:49:03.541Z,13.74
2022-10-23T00:51:36.152Z,13.72
2022-10-23T00:56:50.722Z,13.54
2022-10-23T00:59:20.177Z,13.58
2022-10-23T01:01:47.040Z,13.64
2022-10-23T01:04:14.352Z,13.60
2022-10-23T01:06:47.207Z,13.66
2022-10-23T01:09:58.563Z,13.81
2022-10-23T01:12:46.950Z,13.77
2022-10-23T01:15:23.844Z,13.56
2022-10-23T01:17:54.696Z,13.55
2022-10-23T01:20:40.916Z,13.42
2022-10-23T01:23:30.251Z,13.49
2022-10-23T01:26:20.153Z,13.51
2022-10-23T01:28:50.277Z,13.56
2022-10-23T01:31:26.158Z,13.59
2022-10-23T01:33:57.891Z,13.52
2022-10-23T01:36:28.536Z,13.60
2022-10-23T01:39:04.946Z,13.72
2022-10-23T01:41:54.998Z,13.76
2022-10-23T01:44:49.858Z,13.86
2022-10-23T01:47:24.816Z,13.83
2022-10-23T01:50:05.477Z,13.88
2022-10-23T01:52:38.382Z,13.91
2022-10-23T01:55:08.515Z,13.83
2022-10-23T01:57:36.470Z,13.95
2022-10-23T02:00:10.080Z,14.00
2022-10-23T02:02:51.761Z,13.99
2022-10-23T02:05:29.881Z,13.89
2022-10-23T02:07:58.427Z,14.00
2022-10-23T02:10:36.672Z,14.00
2022-10-23T02:13:17.645Z,14.04
2022-10-23T02:15:56.395Z,14.01
2022-10-23T02:18:41.627Z,14.01
2022-10-23T02:21:12.439Z,13.87
2022-10-23T02:23:46.076Z,13.80
2022-10-23T02:26:35.790Z,13.87
2022-10-23T02:29:35.801Z,13.91
2022-10-23T02:32:02.471Z,14.02
2022-10-23T02:34:29.328Z,13.98
2022-10-23T02:37:08.419Z,14.09
2022-10-23T02:39:35.190Z,14.12
2022-10-23T02:42:36.710Z,14.32
2022-10-23T02:45:10.749Z,14.34
2022-10-23T02:47:40.710Z,14.26
2022-10-23T02:50:19.576Z,14.44
2022-10-23T02:52:54.937Z,14.00
2022-10-23T02:55:40.786Z,13.97
2022-10-23T02:58:24.627Z,13.96
2022-10-23T03:00:58.657Z,13.94
2022-10-23T03:03:33.176Z,13.87
2022-10-23T03:06:22.226Z,13.77
2022-10-23T03:09:04.176Z,13.86
2022-10-23T03:11:30.961Z,13.90
2022-10-23T03:14:00.774Z,13.92
2022-10-23T03:16:27.965Z,13.95
2022-10-23T03:18:55.224Z,13.93
2022-10-23T03:21:25.467Z,13.86
2022-10-23T03:23:53.436Z,13.84
2022-10-23T03:26:34.339Z,13.87
2022-10-23T03:29:01.097Z,13.89
2022-10-23T03:31:27.691Z,13.96
2022-10-23T03:33:59.796Z,14.00
2022-10-23T03:36:27.426Z,13.96
2022-10-23T03:38:54.101Z,13.97
2022-10-23T03:41:21.163Z,14.02
2022-10-23T03:43:48.651Z,14.04
2022-10-23T03:46:17.890Z,14.09
2022-10-23T03:48:44.725Z,14.27
2022-10-23T03:51:14.056Z,14.18
2022-10-23T03:54:27.480Z,14.13
2022-10-23T03:57:01.549Z,14.17
2022-10-23T03:59:28.881Z,14.16
2022-10-23T04:01:55.661Z,14.11
2022-10-23T04:04:24.421Z,14.08
2022-10-23T04:06:51.064Z,14.11
2022-10-23T04:09:19.084Z,14.02
2022-10-23T04:11:55.787Z,14.09
2022-10-23T04:14:26.436Z,14.10
2022-10-23T04:16:53.084Z,14.19
2022-10-23T04:19:20.648Z,14.29
2022-10-23T04:21:50.358Z,14.29
2022-10-23T04:24:16.956Z,14.22
2022-10-23T04:26:45.349Z,14.13
2022-10-23T04:29:14.150Z,14.10
2022-10-23T04:31:40.860Z,14.15
2022-10-23T04:34:07.600Z,14.25
2022-10-23T04:36:35.498Z,14.07
2022-10-23T04:39:07.763Z,13.92
2022-10-23T04:41:36.843Z,13.99
2022-10-23T04:44:03.528Z,14.06
2022-10-23T04:46:30.463Z,13.99
2022-10-23T04:48:57.080Z,14.00
2022-10-23T04:51:29.243Z,14.04
2022-10-23T04:54:21.929Z,14.13
2022-10-23T04:57:53.456Z,14.07
2022-10-23T05:00:23.867Z,14.15
2022-10-23T05:02:53.633Z,14.24
2022-10-23T05:05:21.326Z,14.27
2022-10-23T05:08:00.214Z,14.37
2022-10-23T05:10:55.367Z,14.37
2022-10-23T05:13:22.227Z,14.16
2022-10-23T05:15:49.886Z,14.38
2022-10-23T05:18:25.524Z,14.36
2022-10-23T05:20:57.413Z,14.44
2022-10-23T05:23:26.181Z,14.58
2022-10-23T05:26:00.337Z,14.79
2022-10-23T05:28:26.944Z,14.70
2022-10-23T05:30:54.193Z,14.69
2022-10-23T05:33:26.883Z,14.74
2022-10-23T05:35:53.747Z,14.63
2022-10-23T05:38:22.304Z,14.65
2022-10-23T05:40:51.538Z,14.74
2022-10-23T05:43:19.848Z,14.65
2022-10-23T05:45:54.075Z,14.64
2022-10-23T05:48:35.746Z,14.59
2022-10-23T05:51:10.289Z,14.67
2022-10-23T05:53:45.298Z,14.65
2022-10-23T05:56:18.997Z,14.63
2022-10-23T05:59:04.698Z,14.64
2022-10-23T06:01:50.049Z,14.58
2022-10-23T06:04:26.861Z,14.67
2022-10-23T06:07:16.591Z,14.70
2022-10-23T06:09:45.406Z,14.66
2022-10-23T06:12:13.381Z,14.68
2022-10-23T06:14:42.966Z,14.67
2022-10-23T06:17:09.749Z,14.60
2022-10-23T06:19:41.488Z,14.70
2022-10-23T06:22:08.235Z,14.65
2022-10-23T06:24:46.104Z,14.74
2022-10-23T06:27:15.617Z,14.75
2022-10-23T06:29:44.080Z,14.85
2022-10-23T06:32:11.425Z,14.59
2022-10-23T06:34:39.076Z,14.54
2022-10-23T06:37:08.087Z,14.63
2022-10-23T06:39:36.743Z,14.55
2022-10-23T06:42:12.891Z,14.51
2022-10-23T06:44:54.398Z,14.50
2022-10-23T06:47:53.543Z,14.64
2022-10-23T06:50:51.283Z,14.77
2022-10-23T06:53:24.901Z,14.94
2022-10-23T06:56:03.834Z,14.93
2022-10-23T06:58:43.302Z,15.04
2022-10-23T07:01:14.852Z,14.92
2022-10-23T07:03:42.872Z,14.82
2022-10-23T07:06:10.332Z,14.88
2022-10-23T07:08:38.202Z,14.96
2022-10-23T07:11:17.023Z,14.81
2022-10-23T07:13:46.821Z,14.82
2022-10-23T07:16:19.251Z,14.85
2022-10-23T07:18:46.777Z,14.98
2022-10-23T07:21:39.273Z,15.01
2022-10-23T07:24:21.799Z,15.13
2022-10-23T07:27:13.960Z,15.28
2022-10-23T07:29:42.039Z,15.31
2022-10-23T07:32:09.203Z,15.30
2022-10-23T07:34:54.409Z,15.34
2022-10-23T07:37:31.709Z,15.36
2022-10-23T07:40:16.958Z,15.46
2022-10-23T07:42:44.565Z,15.52
2022-10-23T07:45:12.511Z,15.64
2022-10-23T07:47:53.490Z,15.73
2022-10-23T07:50:24.333Z,15.72
2022-10-23T07:52:51.804Z,15.73
2022-10-23T07:55:22.752Z,15.85
2022-10-23T07:58:03.422Z,15.97
2022-10-23T08:01:01.600Z,15.79
2022-10-23T08:03:35.284Z,15.63
2022-10-23T08:06:03.149Z,15.77
2022-10-23T08:08:34.036Z,15.98
2022-10-23T08:11:06.243Z,16.13
2022-10-23T08:13:47.220Z,16.06
2022-10-23T08:16:14.144Z,16.25
2022-10-23T08:19:06.155Z,16.57
2022-10-23T08:26:27.926Z,16.51
2022-10-23T08:28:58.498Z,16.63
2022-10-23T08:31:26.568Z,16.69
2022-10-23T08:34:09.769Z,16.90
2022-10-23T08:36:39.268Z,17.02
2022-10-23T08:39:09.484Z,17.08
2022-10-23T08:41:47.652Z,17.19
2022-10-23T08:44:22.554Z,16.98
2022-10-23T08:47:01.965Z,16.97
2022-10-23T08:49:59.242Z,17.33
2022-10-23T08:52:45.274Z,17.42
2022-10-23T08:55:40.077Z,17.21
2022-10-23T08:58:35.093Z,17.55
2022-10-23T09:01:10.567Z,17.53
2022-10-23T09:03:40.476Z,17.47
2022-10-23T09:06:29.542Z,16.98
2022-10-23T09:09:56.193Z,17.00
2022-10-23T09:12:26.120Z,17.08
2022-10-23T09:15:19.114Z,17.19
2022-10-23T09:17:55.599Z,17.26
2022-10-23T09:20:47.988Z,17.38
2022-10-23T09:23:29.625Z,17.44
2022-10-23T09:25:58.811Z,17.39
2022-10-23T09:28:47.937Z,17.52
2022-10-23T09:31:19.900Z,17.71
2022-10-23T09:33:57.976Z,17.77
2022-10-23T09:36:32.660Z,17.80
2022-10-23T09:41:57.179Z,17.82
2022-10-23T09:44:36.323Z,17.95
2022-10-23T09:47:11.728Z,17.92
2022-10-23T09:52:50.201Z,18.00
2022-10-23T09:55:44.796Z,18.05
2022-10-23T09:58:59.127Z,17.97
2022-10-23T10:01:40.325Z,18.16
2022-10-23T10:04:38.883Z,18.18
2022-10-23T10:07:30.276Z,18.11
2022-10-23T10:09:59.542Z,18.03
2022-10-23T10:16:20.771Z,18.19
2022-10-23T10:19:11.641Z,18.18
2022-10-23T10:21:57.143Z,18.26
2022-10-23T10:24:34.419Z,18.28
2022-10-23T10:27:11.411Z,18.32
2022-10-23T10:30:07.308Z,18.46
2022-10-23T10:32:59.141Z,18.36
2022-10-23T10:35:43.309Z,18.44
2022-10-23T10:38:19.053Z,18.49
2022-10-23T10:40:59.113Z,18.46
2022-10-23T10:43:35.336Z,18.44
2022-10-23T10:46:23.919Z,18.43
2022-10-23T10:48:54.550Z,18.54
2022-10-23T10:51:54.138Z,18.64
2022-10-23T10:54:37.100Z,18.88
2022-10-23T10:57:42.725Z,19.08
2022-10-23T11:00:34.226Z,19.17
2022-10-23T11:07:52.070Z,19.13
2022-10-23T11:10:24.835Z,19.16
2022-10-23T11:13:58.095Z,19.29
2022-10-23T11:16:26.567Z,19.26
2022-10-23T11:19:14.167Z,19.30
2022-10-23T11:21:55.000Z,19.34
2022-10-23T11:25:04.990Z,19.30
2022-10-23T11:28:12.852Z,19.31
2022-10-23T11:31:58.154Z,19.31
2022-10-23T11:50:10.490Z,19.21
2022-10-23T11:50:12.613Z,19.09
2022-10-23T12:02:00.202Z,18.84
2022-10-23T12:04:49.360Z,18.92
2022-10-23T12:07:24.842Z,19.06
2022-10-23T12:10:05.642Z,19.15
2022-10-23T12:12:43.218Z,19.27
2022-10-23T12:15:15.924Z,19.34
2022-10-23T12:17:43.875Z,19.44
2022-10-23T12:20:11.232Z,19.50
2022-10-23T12:22:47.391Z,19.51
2022-10-23T12:25:35.751Z,19.58
2022-10-23T12:28:41.666Z,19.80
2022-10-23T12:31:26.542Z,19.71
2022-10-23T12:33:53.348Z,19.50
2022-10-23T12:36:37.823Z,19.56
2022-10-23T12:39:27.503Z,19.60
2022-10-23T12:41:57.338Z,19.73
2022-10-23T12:44:25.364Z,19.82
2022-10-23T12:47:00.137Z,19.50
2022-10-23T12:49:45.558Z,19.51
2022-10-23T12:52:19.988Z,19.75
2022-10-23T12:54:47.889Z,19.82
2022-10-23T12:57:21.188Z,19.68
2022-10-23T12:59:48.865Z,19.73
2022-10-23T13:02:25.384Z,19.53
2022-10-23T13:04:54.837Z,19.58
2022-10-23T13:07:32.285Z,19.46
2022-10-23T13:10:05.035Z,19.60
2022-10-23T13:12:36.796Z,19.61
2022-10-23T13:15:06.803Z,19.58
2022-10-23T13:17:49.265Z,19.74
2022-10-23T13:20:22.403Z,19.45
2022-10-23T13:22:57.734Z,19.12
2022-10-23T13:25:30.754Z,19.18
2022-10-23T13:28:23.937Z,19.20
2022-10-23T13:31:07.477Z,19.26
2022-10-23T13:33:48.671Z,19.26
2022-10-23T13:36:16.958Z,19.21
2022-10-23T13:38:48.384Z,19.16
2022-10-23T13:41:20.222Z,19.05
2022-10-23T13:43:48.230Z,19.02
2022-10-23T13:46:24.607Z,19.01
2022-10-23T13:48:52.054Z,19.03
2022-10-23T13:51:31.505Z,18.99
2022-10-23T13:53:58.416Z,19.12
2022-10-23T13:56:28.865Z,19.08
2022-10-23T13:58:56.679Z,19.01
2022-10-23T14:01:28.539Z,19.21
2022-10-23T14:03:57.113Z,19.19
2022-10-23T14:06:23.889Z,19.40
2022-10-23T14:08:51.395Z,19.23
2022-10-23T14:11:19.581Z,19.18
2022-10-23T14:13:47.903Z,19.12
2022-10-23T14:16:16.785Z,19.20
2022-10-23T14:18:44.644Z,19.01
2022-10-23T14:21:13.219Z,18.97
2022-10-23T14:23:40.201Z,18.90
2022-10-23T14:26:09.625Z,19.02
2022-10-23T14:28:36.418Z,18.98
2022-10-23T14:31:12.653Z,18.90
2022-10-23T14:33:39.667Z,18.96
2022-10-23T14:36:09.667Z,19.20
2022-10-23T14:38:37.112Z,19.09
2022-10-23T14:41:06.855Z,19.01
2022-10-23T14:43:33.472Z,18.99
2022-10-23T14:46:08.848Z,19.17
2022-10-23T14:48:37.704Z,18.95
2022-10-23T14:51:07.714Z,18.79
2022-10-23T14:53:37.420Z,18.88
2022-10-23T14:56:05.034Z,18.84
2022-10-23T14:58:31.790Z,18.62
2022-10-23T15:01:05.501Z,18.71
2022-10-23T15:03:32.916Z,18.64
2022-10-23T15:05:59.538Z,18.77
2022-10-23T15:08:26.170Z,18.67
2022-10-23T15:10:53.071Z,18.54
2022-10-23T15:13:19.773Z,18.54
2022-10-23T15:15:46.570Z,18.73
2022-10-23T15:18:13.452Z,18.67
2022-10-23T15:20:40.198Z,18.66
2022-10-23T15:23:07.233Z,18.58
2022-10-23T15:25:33.979Z,18.52
2022-10-23T15:28:00.545Z,18.45
2022-10-23T15:30:27.466Z,18.46
2022-10-23T15:32:54.203Z,18.31
2022-10-23T15:35:20.965Z,18.28
2022-10-23T15:37:47.788Z,18.20
2022-10-23T15:40:14.344Z,18.19
2022-10-23T15:42:41.149Z,18.03
2022-10-23T15:45:10.195Z,18.15
2022-10-23T15:47:36.724Z,18.15
2022-10-23T15:50:04.015Z,18.04
2022-10-23T15:52:30.621Z,17.75
2022-10-23T15:54:57.416Z,17.62
2022-10-23T15:57:24.055Z,17.81
2022-10-23T15:59:51.172Z,17.66
2022-10-23T16:02:18.241Z,17.80
2022-10-23T16:04:45.011Z,17.92
2022-10-23T16:07:11.711Z,17.79
2022-10-23T16:09:38.381Z,17.76
2022-10-23T16:12:05.445Z,17.79
2022-10-23T16:14:32.183Z,17.69
2022-10-23T16:16:58.848Z,17.66
2022-10-23T16:19:28.669Z,17.76
2022-10-23T16:21:55.391Z,17.80
2022-10-23T16:24:22.129Z,17.81
2022-10-23T16:26:53.166Z,17.86
2022-10-23T16:29:27.104Z,17.83
2022-10-23T16:39:21.393Z,17.65
2022-10-23T16:42:08.056Z,17.63
2022-10-23T16:44:57.931Z,17.59
2022-10-23T16:47:41.214Z,17.69
2022-10-23T16:50:22.834Z,17.57
2022-10-23T16:52:52.012Z,17.56
2022-10-23T16:56:09.354Z,17.52
2022-10-23T16:58:42.556Z,17.46
2022-10-23T17:01:19.511Z,17.45
2022-10-23T17:03:52.370Z,17.40
2022-10-23T17:07:27.360Z,17.38
2022-10-23T17:10:32.982Z,17.39
2022-10-23T17:12:59.932Z,17.50
2022-10-23T17:15:51.493Z,17.40
2022-10-23T17:18:18.496Z,17.45
2022-10-23T17:20:52.275Z,17.48
2022-10-23T17:23:19.138Z,17.42
2022-10-23T17:48:19.040Z,17.28
2022-10-23T17:50:49.422Z,17.44
2022-10-23T17:53:18.075Z,17.34
2022-10-23T17:55:44.709Z,17.24
2022-10-23T17:58:11.665Z,17.07
2022-10-23T18:00:38.597Z,17.06
2022-10-23T18:03:05.402Z,17.21
2022-10-23T18:05:33.205Z,17.18
2022-10-23T18:08:00.116Z,17.08
2022-10-23T18:10:26.991Z,17.05
2022-10-23T18:12:53.899Z,16.96
2022-10-23T18:15:20.983Z,16.94
2022-10-23T18:17:47.798Z,16.97
2022-10-23T18:20:15.660Z,16.98
2022-10-23T18:22:43.527Z,16.97
2022-10-23T18:25:11.161Z,16.86
2022-10-23T18:27:39.717Z,16.85
2022-10-23T18:30:07.600Z,16.90
2022-10-23T18:32:34.448Z,16.84
2022-10-23T18:35:01.062Z,16.91
2022-10-23T18:37:31.803Z,16.90
2022-10-23T18:40:00.023Z,16.93
2022-10-23T18:42:26.840Z,17.02
2022-10-23T18:44:53.603Z,17.25
2022-10-23T18:47:20.247Z,16.99
2022-10-23T18:49:47.417Z,17.09
2022-10-23T18:52:14.156Z,17.02
2022-10-23T18:54:40.672Z,16.94
2022-10-23T18:57:07.584Z,16.94
2022-10-23T18:59:34.392Z,16.92
2022-10-23T19:02:01.150Z,16.91
2022-10-23T19:04:29.812Z,17.03
2022-10-23T19:06:57.190Z,17.03
2022-10-23T19:09:23.956Z,17.02
2022-10-23T19:11:50.751Z,17.35
2022-10-23T19:14:17.331Z,17.25
2022-10-23T19:16:55.089Z,17.24
2022-10-23T19:19:25.828Z,17.26
2022-10-23T19:21:56.381Z,17.19
2022-10-23T19:24:29.691Z,17.28
2022-10-23T19:26:57.659Z,17.34
2022-10-23T19:29:26.624Z,17.23
2022-10-23T19:31:53.928Z,17.19
2022-10-23T19:34:24.720Z,17.28
2022-10-23T19:36:53.095Z,17.26
2022-10-23T19:39:20.459Z,17.25
2022-10-23T19:41:47.373Z,17.40
2022-10-23T19:44:14.958Z,17.23
2022-10-23T19:46:41.799Z,17.77
2022-10-23T19:49:09.089Z,17.41
2022-10-23T19:51:36.490Z,17.31
2022-10-23T19:54:04.186Z,17.75
2022-10-23T19:56:32.958Z,17.52
2022-10-23T19:59:27.244Z,17.37
2022-10-23T20:07:25.434Z,17.42
2022-10-23T20:10:26.317Z,17.44
2022-10-23T20:13:42.296Z,17.26
2022-10-23T20:16:19.969Z,17.38
2022-10-23T20:18:47.860Z,17.40
2022-10-23T20:46:30.350Z,17.21
2022-10-23T20:50:43.783Z,17.19
2022-10-23T21:02:22.002Z,17.11
2022-10-23T21:15:36.974Z,16.92
2022-10-23T21:19:27.790Z,16.84
2022-10-23T21:22:11.717Z,16.62
2022-10-23T21:40:29.557Z,16.29
2022-10-23T22:11:06.592Z,16.41
2022-10-23T22:13:36.490Z,16.35
2022-10-23T22:16:05.953Z,16.38
2022-10-23T22:18:34.144Z,16.31
2022-10-23T22:21:15.396Z,16.28
2022-10-23T22:24:24.280Z,16.41
2022-10-23T22:26:56.058Z,16.37
2022-10-23T22:29:26.490Z,16.21
2022-10-23T22:31:53.941Z,16.20
2022-10-23T22:34:51.460Z,16.22
2022-10-23T22:37:15.847Z,16.37
2022-10-23T22:39:42.771Z,16.45
2022-10-23T22:42:13.097Z,16.40
2022-10-23T22:44:39.910Z,16.48
2022-10-23T22:47:07.060Z,16.31
2022-10-23T22:49:33.781Z,16.34
2022-10-23T22:52:05.328Z,16.26
2022-10-23T22:54:32.128Z,16.15
2022-10-23T22:56:58.845Z,16.31
2022-10-23T22:59:25.442Z,16.29
2022-10-23T23:01:52.075Z,16.27
2022-10-23T23:07:10.280Z,16.25
2022-10-23T23:09:42.190Z,16.24
2022-10-23T23:12:10.241Z,16.31
2022-10-23T23:14:37.075Z,16.26
2022-10-23T23:17:03.857Z,16.12
2022-10-23T23:19:30.558Z,16.14
2022-10-23T23:21:58.252Z,16.10
2022-10-23T23:24:25.878Z,16.09
2022-10-23T23:26:52.619Z,16.21
2022-10-23T23:29:19.192Z,16.16
2022-10-23T23:31:45.937Z,16.13
2022-10-23T23:34:12.474Z,16.31
2022-10-23T23:36:39.349Z,16.24
2022-10-23T23:39:05.953Z,16.23
2022-10-23T23:41:32.577Z,16.17
2022-10-23T23:43:59.387Z,16.13
2022-10-23T23:46:26.300Z,16.10
2022-10-23T23:48:52.901Z,16.05
2022-10-23T23:51:22.340Z,16.09
2022-10-23T23:53:49.700Z,16.03
2022-10-23T23:56:17.157Z,16.08
2022-10-23T23:58:44.259Z,16.29
